Norfolk, Virginia
Traffic Map
Current Weather Conditions
Norfolk, Virginia
Overcast Light Rain
Overcast
40°
Feels Like: 30°
Wind Chill: 30° Ceiling: 6000
Heat Index: 40° Visibility: 10mi
Dew Point: 32° Wind: 21mph
Humidity: 73% Direction: 10° (N)
Pressure: 29.77in Gusts: 33mph
Raw Report DataKORF 080151Z AUTO 01018G29KT 10SM -RA OVC060 04/00 A2977 RMK AO2 PK WND 35029/0147 SLP080 P0000 T00440000 TSNO
Traffic Incident Summary
Active as of:
Severity:
Category:
InformationThere was an issue retrieving the traffic information for this location. Please try a different location or try again shortly.
Advertisements
Track Severe Weather on mobile